Time;durP1;ratioP1;P1;durP2;ratioP2;P2;SDS_P1;SDS_P2;PMS_P1;PMS_P2;Temp;Humidity;BMP_temperature;BMP_pressure;BME280_temperature;BME280_humidity;BME280_pressure;Samples;Min_cycle;Max_cycle;Signal;HPM_P1;HPM_P2
2023/01/21 00:00:43;;;;;;;46.50;28.55;;;25.40;99.90;;;;;;5076578;28;20012;-68
2023/01/21 00:03:11;;;;;;;40.63;27.30;;;25.40;99.90;;;;;;5076589;28;20029;-69
2023/01/21 00:05:38;;;;;;;45.30;30.40;;;25.40;99.90;;;;;;5076619;28;20065;-66
2023/01/21 00:08:04;;;;;;;48.85;30.45;;;25.40;99.90;;;;;;5076472;28;20028;-66
2023/01/21 00:10:31;;;;;;;46.15;30.95;;;25.40;99.90;;;;;;5076654;28;20020;-68
2023/01/21 00:12:57;;;;;;;61.65;41.92;;;25.50;99.90;;;;;;5076548;28;20028;-68
2023/01/21 00:15:24;;;;;;;52.53;31.83;;;25.50;99.90;;;;;;5076597;28;20135;-68
2023/01/21 00:17:52;;;;;;;51.85;32.92;;;25.50;99.90;;;;;;5076350;28;20023;-70
2023/01/21 00:20:20;;;;;;;47.95;29.65;;;25.50;99.90;;;;;;5076412;28;20484;-66
2023/01/21 00:22:46;;;;;;;68.00;48.42;;;25.50;99.90;;;;;;5076003;28;20465;-67
2023/01/21 00:25:13;;;;;;;37.13;26.17;;;25.60;99.90;;;;;;5076337;28;20024;-68
2023/01/21 00:27:39;;;;;;;33.60;23.13;;;25.60;99.90;;;;;;5096492;28;20065;-67
2023/01/21 00:30:07;;;;;;;31.33;20.95;;;25.60;99.90;;;;;;5096395;28;20024;-67
2023/01/21 00:32:33;;;;;;;27.95;20.55;;;25.60;99.90;;;;;;5091857;28;20038;-68
2023/01/21 00:34:59;;;;;;;22.30;19.63;;;25.60;99.90;;;;;;5085327;28;20020;-68
2023/01/21 00:37:26;;;;;;;29.48;21.80;;;25.60;99.90;;;;;;5075576;28;20017;-67
2023/01/21 00:39:52;;;;;;;31.08;24.40;;;25.60;99.90;;;;;;5075927;28;20012;-66
2023/01/21 00:42:19;;;;;;;28.35;21.00;;;25.60;99.90;;;;;;5075872;28;20021;-67
2023/01/21 00:44:45;;;;;;;25.02;20.52;;;25.60;99.90;;;;;;5075686;28;20021;-67
2023/01/21 00:47:12;;;;;;;30.33;21.20;;;25.70;99.90;;;;;;5075742;28;20095;-67
2023/01/21 00:49:38;;;;;;;35.60;24.48;;;25.90;99.90;;;;;;5075740;28;20055;-67
2023/01/21 00:52:05;;;;;;;26.63;20.42;;;25.80;99.90;;;;;;5075689;28;20036;-70
2023/01/21 00:54:31;;;;;;;26.27;18.20;;;25.80;99.90;;;;;;5075718;28;20522;-67
2023/01/21 00:56:58;;;;;;;21.50;15.82;;;25.90;99.90;;;;;;5075791;28;20146;-68
2023/01/21 00:59:27;;;;;;;25.75;16.58;;;26.00;99.90;;;;;;5075437;28;20032;-69
2023/01/21 01:01:54;;;;;;;23.92;17.30;;;26.10;99.90;;;;;;5075096;28;20111;-67
2023/01/21 01:04:21;;;;;;;19.13;16.10;;;26.10;99.90;;;;;;5057472;28;20392;-68
2023/01/21 01:06:48;;;;;;;23.25;16.13;;;26.00;99.90;;;;;;5075523;28;20030;-68
2023/01/21 01:09:15;;;;;;;22.15;13.95;;;26.20;99.90;;;;;;5075508;28;20028;-66
2023/01/21 01:11:42;;;;;;;21.83;14.73;;;26.10;99.90;;;;;;5075447;28;20060;-67
2023/01/21 01:14:08;;;;;;;22.63;15.73;;;26.30;99.90;;;;;;5075482;28;20033;-67
2023/01/21 01:16:35;;;;;;;20.52;14.93;;;26.40;99.90;;;;;;5075317;28;20017;-68
2023/01/21 01:19:01;;;;;;;24.10;15.95;;;26.40;99.90;;;;;;5075659;28;20350;-67
2023/01/21 01:21:28;;;;;;;23.45;14.77;;;26.20;99.90;;;;;;5075462;28;20020;-68
2023/01/21 01:23:56;;;;;;;23.80;14.20;;;26.30;99.90;;;;;;5075493;28;20304;-68
2023/01/21 01:26:23;;;;;;;20.27;15.13;;;26.30;99.90;;;;;;5075256;28;20508;-68
2023/01/21 01:28:49;;;;;;;42.30;29.55;;;26.50;99.90;;;;;;5075201;28;20028;-67
2023/01/21 01:31:17;;;;;;;23.88;16.63;;;26.40;99.90;;;;;;5075095;28;20077;-67
2023/01/21 01:33:44;;;;;;;31.25;19.40;;;26.50;99.90;;;;;;5075224;28;20029;-68
2023/01/21 01:36:23;;;;;;;19.95;14.43;;;26.60;99.90;;;;;;5075283;28;20021;-66
2023/01/21 01:38:50;;;;;;;21.20;14.73;;;26.60;99.90;;;;;;5075051;28;20381;-67
2023/01/21 01:41:20;;;;;;;25.17;14.13;;;26.70;99.90;;;;;;5074904;28;20021;-67
2023/01/21 01:43:50;;;;;;;18.02;13.23;;;26.70;99.90;;;;;;5075028;28;20016;-69
2023/01/21 01:46:17;;;;;;;20.00;13.50;;;26.80;99.90;;;;;;5074793;28;20103;-69
2023/01/21 01:48:47;;;;;;;17.58;12.75;;;26.90;99.90;;;;;;5074812;28;20029;-69
2023/01/21 01:51:19;;;;;;;17.58;13.15;;;26.90;99.90;;;;;;5074660;28;20020;-67
2023/01/21 01:53:47;;;;;;;21.35;12.38;;;27.00;99.90;;;;;;5074587;28;20020;-68
2023/01/21 01:56:15;;;;;;;16.85;12.77;;;26.90;99.90;;;;;;5087449;28;20307;-69
2023/01/21 01:58:42;;;;;;;23.75;13.48;;;26.90;99.90;;;;;;5104335;28;20041;-68
2023/01/21 02:01:09;;;;;;;22.27;14.13;;;27.00;99.90;;;;;;5105474;28;20112;-68
2023/01/21 02:03:55;;;;;;;15.27;11.95;;;27.10;99.90;;;;;;5103485;28;20024;-68
2023/01/21 02:06:22;;;;;;;17.85;12.32;;;27.10;99.90;;;;;;5102823;28;20100;-67
2023/01/21 02:08:48;;;;;;;31.33;21.88;;;27.10;99.90;;;;;;5103283;28;20039;-67
2023/01/21 02:11:18;;;;;;;25.48;14.20;;;27.20;99.90;;;;;;5102446;28;20192;-67
2023/01/21 02:13:52;;;;;;;18.30;13.15;;;27.30;99.90;;;;;;5103235;28;20039;-67
2023/01/21 02:16:31;;;;;;;14.65;10.57;;;27.40;99.90;;;;;;5101503;28;20050;-68
2023/01/21 02:19:20;;;;;;;14.60;9.27;;;27.20;99.90;;;;;;5099388;28;20055;-67
2023/01/21 02:21:50;;;;;;;19.88;10.57;;;27.40;99.90;;;;;;5101763;28;20032;-68
2023/01/21 02:24:39;;;;;;;15.52;11.80;;;27.30;99.90;;;;;;5100361;28;20016;-67
2023/01/21 02:27:07;;;;;;;19.90;10.85;;;27.30;99.90;;;;;;5102442;28;20042;-66
2023/01/21 02:29:37;;;;;;;13.98;10.00;;;27.20;99.90;;;;;;5099592;28;20107;-68
2023/01/21 02:32:43;;;;;;;13.45;10.18;;;27.30;99.90;;;;;;5103244;28;20395;-67
2023/01/21 02:35:17;;;;;;;17.30;10.77;;;27.30;99.90;;;;;;5099029;28;20084;-67
2023/01/21 02:38:01;;;;;;;21.52;11.90;;;27.30;99.90;;;;;;5103324;28;20023;-68
2023/01/21 02:40:28;;;;;;;15.02;10.70;;;27.20;99.90;;;;;;5103315;28;20023;-69
2023/01/21 02:43:02;;;;;;;16.98;10.57;;;27.30;99.90;;;;;;5102490;28;20047;-68
2023/01/21 02:45:48;;;;;;;33.47;24.92;;;27.30;99.90;;;;;;5102555;28;20024;-68
2023/01/21 02:48:22;;;;;;;23.08;14.73;;;27.30;99.90;;;;;;5099626;28;20052;-69
2023/01/21 02:50:52;;;;;;;26.52;15.82;;;27.40;99.90;;;;;;5102411;28;20063;-67
2023/01/21 02:53:22;;;;;;;20.42;14.38;;;27.40;99.90;;;;;;5100389;28;20388;-67
2023/01/21 02:55:48;;;;;;;24.70;16.90;;;27.40;99.90;;;;;;5102340;28;20060;-68
2023/01/21 02:58:19;;;;;;;25.23;13.77;;;27.40;99.90;;;;;;5099809;28;20024;-68
2023/01/21 03:00:56;;;;;;;19.38;12.95;;;27.40;99.90;;;;;;5105659;28;20514;-68
2023/01/21 03:03:32;;;;;;;21.92;13.82;;;27.40;99.90;;;;;;5115482;28;20027;-71
2023/01/21 03:06:17;;;;;;;19.35;11.32;;;27.50;99.90;;;;;;5114212;28;20025;-71
2023/01/21 03:08:45;;;;;;;35.47;23.88;;;27.60;99.90;;;;;;5114169;28;20139;-71
2023/01/21 03:11:15;;;;;;;18.33;12.40;;;27.70;99.90;;;;;;5113704;28;20024;-71
2023/01/21 03:17:03;;;;;;;27.92;17.55;;;27.80;99.90;;;;;;5113642;28;20108;-69
2023/01/21 03:19:34;;;;;;;19.33;11.38;;;27.70;99.90;;;;;;5110988;28;20404;-70
2023/01/21 03:22:06;;;;;;;20.23;11.95;;;27.80;99.90;;;;;;5111968;28;20034;-70
2023/01/21 03:24:33;;;;;;;;;;;27.80;99.90;;;;;;5114186;28;20027;-69
2023/01/21 03:27:01;;;;;;;25.85;18.92;;;27.80;99.90;;;;;;5117176;28;19904;-71
2023/01/21 03:29:30;;;;;;;39.10;27.65;;;27.90;99.90;;;;;;5103470;28;20530;-70
2023/01/21 03:32:02;;;;;;;21.02;13.50;;;27.80;99.90;;;;;;5096815;28;20028;-71
2023/01/21 03:34:32;;;;;;;25.58;13.90;;;27.90;99.90;;;;;;5097138;28;20448;-72
2023/01/21 03:36:59;;;;;;;19.45;13.95;;;28.00;99.90;;;;;;5097351;28;20028;-71
2023/01/21 03:39:50;;;;;;;27.60;16.60;;;28.00;99.90;;;;;;5097397;28;20039;-71
2023/01/21 03:42:17;;;;;;;25.83;17.02;;;28.00;99.90;;;;;;5088788;28;20031;-69
2023/01/21 03:44:45;;;;;;;29.92;20.02;;;28.00;99.90;;;;;;5095300;28;20023;-70
2023/01/21 03:47:20;;;;;;;28.35;19.88;;;28.10;99.90;;;;;;5081649;28;20048;-73
2023/01/21 03:49:56;;;;;;;26.65;16.77;;;28.00;99.90;;;;;;5076795;28;20024;-69
2023/01/21 03:52:25;;;;;;;27.45;17.13;;;28.10;99.90;;;;;;5076422;28;20098;-69
2023/01/21 03:54:52;;;;;;;43.47;24.02;;;28.10;99.90;;;;;;5086547;28;20036;-70
2023/01/21 03:57:19;;;;;;;287.63;197.20;;;28.30;99.90;;;;;;5097134;28;20392;-70
2023/01/21 03:59:45;;;;;;;142.52;86.82;;;28.20;99.90;;;;;;5096329;28;20452;-69
2023/01/21 04:02:12;;;;;;;39.38;24.38;;;28.30;99.90;;;;;;5096770;28;20088;-70
2023/01/21 04:04:39;;;;;;;46.42;28.77;;;28.30;99.90;;;;;;5097053;28;20051;-70
2023/01/21 04:07:05;;;;;;;33.42;20.17;;;28.30;99.90;;;;;;5096589;28;20020;-69
2023/01/21 04:09:32;;;;;;;52.30;35.40;;;28.20;99.90;;;;;;5096416;28;20054;-69
2023/01/21 04:11:59;;;;;;;27.63;18.90;;;28.30;99.90;;;;;;5096489;28;20108;-72
2023/01/21 04:14:25;;;;;;;60.08;49.38;;;28.40;99.90;;;;;;5096420;28;20020;-69
2023/01/21 04:16:52;;;;;;;27.42;19.75;;;28.30;99.90;;;;;;5096541;28;20020;-69
2023/01/21 04:19:18;;;;;;;38.58;24.70;;;28.40;99.90;;;;;;5096590;28;20020;-69
2023/01/21 04:21:45;;;;;;;30.38;22.63;;;28.40;99.90;;;;;;5096766;28;20020;-69
2023/01/21 04:24:12;;;;;;;36.00;28.52;;;28.40;99.90;;;;;;5089936;28;20032;-68
2023/01/21 04:26:38;;;;;;;36.60;26.88;;;28.40;99.90;;;;;;5081944;28;20027;-73
2023/01/21 04:29:05;;;;;;;31.05;23.55;;;28.40;99.90;;;;;;5075840;28;20039;-74
2023/01/21 04:31:31;;;;;;;36.83;26.60;;;28.50;99.90;;;;;;5075784;28;20028;-69
2023/01/21 04:33:58;;;;;;;28.67;20.02;;;28.60;99.90;;;;;;5075958;28;20103;-74
2023/01/21 04:36:24;;;;;;;26.45;19.85;;;28.70;99.90;;;;;;5075095;28;20056;-69
2023/01/21 04:38:51;;;;;;;27.65;20.63;;;28.70;99.90;;;;;;5079010;28;20376;-68
2023/01/21 04:41:17;;;;;;;29.30;21.58;;;28.70;99.90;;;;;;5085012;28;20024;-67
2023/01/21 04:43:44;;;;;;;63.30;45.92;;;28.70;99.90;;;;;;5075650;28;20040;-68
2023/01/21 04:46:10;;;;;;;37.90;28.30;;;28.70;99.90;;;;;;5075741;28;20028;-68
2023/01/21 04:48:37;;;;;;;66.80;44.65;;;28.80;99.90;;;;;;5075675;28;20052;-67
2023/01/21 04:51:21;;;;;;;54.72;39.13;;;28.80;99.90;;;;;;5075921;28;20129;-71
2023/01/21 04:53:48;;;;;;;44.65;36.42;;;29.00;99.90;;;;;;5076016;28;20530;-68
2023/01/21 04:56:14;;;;;;;29.35;20.67;;;28.90;99.90;;;;;;5075365;28;20040;-70
2023/01/21 04:58:41;;;;;;;26.20;20.67;;;29.00;99.90;;;;;;5075300;28;20017;-69
2023/01/21 05:01:07;;;;;;;27.88;18.23;;;29.10;99.90;;;;;;5075297;28;20484;-72
2023/01/21 05:03:34;;;;;;;29.80;19.77;;;29.10;99.90;;;;;;5075306;28;20048;-72
2023/01/21 05:06:00;;;;;;;35.75;27.13;;;29.20;99.90;;;;;;5075125;28;20021;-72
2023/01/21 05:08:27;;;;;;;22.88;17.98;;;29.20;99.90;;;;;;5076441;28;20283;-70
2023/01/21 05:10:53;;;;;;;22.83;18.15;;;29.20;99.90;;;;;;5087748;28;20511;-70
2023/01/21 05:13:20;;;;;;;20.80;15.38;;;29.10;99.90;;;;;;5076054;28;20021;-69
2023/01/21 05:15:47;;;;;;;22.70;15.55;;;29.10;99.90;;;;;;5074986;28;20024;-67
2023/01/21 05:18:13;;;;;;;23.60;16.30;;;29.20;99.90;;;;;;5074982;28;20044;-68
2023/01/21 05:20:40;;;;;;;25.33;16.08;;;29.10;99.90;;;;;;5074640;28;20056;-68
2023/01/21 05:23:06;;;;;;;22.73;15.65;;;29.20;99.90;;;;;;5074997;28;20050;-68
2023/01/21 05:25:33;;;;;;;26.92;18.42;;;29.30;99.90;;;;;;5074959;28;20476;-69
2023/01/21 05:27:59;;;;;;;20.98;14.63;;;29.30;99.90;;;;;;5074852;28;20031;-70
2023/01/21 05:30:26;;;;;;;21.08;14.52;;;29.40;99.90;;;;;;5075206;28;20535;-70
2023/01/21 05:32:53;;;;;;;21.38;14.15;;;29.40;99.90;;;;;;5075120;28;20028;-68
2023/01/21 05:35:21;;;;;;;22.13;14.32;;;29.50;99.90;;;;;;5074444;28;20017;-67
2023/01/21 05:37:48;;;;;;;21.63;15.05;;;29.50;99.90;;;;;;5074558;28;20082;-67
2023/01/21 05:40:16;;;;;;;22.83;14.27;;;29.40;99.90;;;;;;5074577;28;20024;-72
2023/01/21 05:42:43;;;;;;;43.05;32.83;;;29.30;99.90;;;;;;5074479;28;20028;-66
2023/01/21 05:45:11;;;;;;;31.13;14.93;;;29.50;99.90;;;;;;5074467;28;20108;-71
2023/01/21 05:47:38;;;;;;;23.73;13.93;;;29.60;99.90;;;;;;5074179;28;20048;-72
2023/01/21 05:50:05;;;;;;;20.30;12.85;;;29.50;99.90;;;;;;5077648;28;20033;-71
2023/01/21 05:52:32;;;;;;;19.15;12.55;;;29.50;99.90;;;;;;5094769;28;20043;-71
2023/01/21 05:54:58;;;;;;;33.70;23.88;;;29.50;99.90;;;;;;5094098;28;20024;-70
2023/01/21 05:57:25;;;;;;;49.65;31.70;;;29.70;99.90;;;;;;5074242;28;20376;-70
2023/01/21 05:59:51;;;;;;;40.28;29.33;;;29.70;99.90;;;;;;5078755;28;20016;-70
2023/01/21 06:02:18;;;;;;;29.50;16.42;;;29.60;99.90;;;;;;5078529;28;20070;-69
2023/01/21 06:04:44;;;;;;;16.40;11.20;;;29.80;99.90;;;;;;5073963;28;20392;-70
2023/01/21 06:07:11;;;;;;;17.10;11.27;;;29.90;99.90;;;;;;5074151;28;20031;-68
2023/01/21 06:09:37;;;;;;;21.60;11.32;;;29.80;99.90;;;;;;5074352;28;20104;-69
2023/01/21 06:12:04;;;;;;;19.98;11.80;;;29.80;99.90;;;;;;5076830;28;20031;-68
2023/01/21 06:14:31;;;;;;;20.40;11.38;;;30.00;99.90;;;;;;5093069;28;20193;-69
2023/01/21 06:16:57;;;;;;;16.45;10.68;;;29.90;99.90;;;;;;5089894;28;20027;-70
2023/01/21 06:19:24;;;;;;;24.25;15.82;;;30.00;99.90;;;;;;5055933;28;20028;-69
2023/01/21 06:21:52;;;;;;;17.75;11.63;;;29.90;99.90;;;;;;5073798;28;20020;-70
2023/01/21 06:24:18;;;;;;;15.50;9.25;;;29.90;99.90;;;;;;5073810;28;20108;-69
2023/01/21 06:26:45;;;;;;;13.55;9.98;;;29.80;99.90;;;;;;5073776;28;20473;-70
2023/01/21 06:29:11;;;;;;;18.52;10.80;;;29.90;99.90;;;;;;5073782;28;20032;-70
2023/01/21 06:31:38;;;;;;;20.55;10.45;;;29.80;99.90;;;;;;5073671;28;20048;-69
2023/01/21 06:34:05;;;;;;;15.57;9.98;;;29.90;99.90;;;;;;5073713;28;20024;-72
2023/01/21 06:36:32;;;;;;;18.48;9.65;;;29.90;99.90;;;;;;5073592;28;20024;-73
2023/01/21 06:38:58;;;;;;;14.77;9.18;;;29.90;99.90;;;;;;5094865;28;20099;-70
2023/01/21 06:41:24;;;;;;;16.75;8.98;;;29.90;99.90;;;;;;5096817;28;20024;-69
2023/01/21 06:43:51;;;;;;;17.02;10.07;;;29.90;99.90;;;;;;5093847;28;20027;-69
2023/01/21 06:46:17;;;;;;;21.95;12.60;;;30.00;99.90;;;;;;5095150;28;20125;-68
2023/01/21 06:48:45;;;;;;;20.08;11.18;;;29.90;99.90;;;;;;5095365;28;20085;-69
2023/01/21 06:51:11;;;;;;;17.15;11.90;;;30.00;99.90;;;;;;5093746;28;20027;-69
2023/01/21 06:53:37;;;;;;;16.90;11.52;;;29.90;99.90;;;;;;5093734;28;20024;-70
2023/01/21 06:56:04;;;;;;;24.20;13.13;;;30.00;99.90;;;;;;5093799;28;20024;-69
2023/01/21 06:58:31;;;;;;;26.48;15.55;;;30.00;99.90;;;;;;5088635;28;20066;-74
2023/01/21 07:00:57;;;;;;;30.90;17.08;;;30.10;99.90;;;;;;5082508;28;20021;-71
2023/01/21 07:03:24;;;;;;;23.02;15.35;;;30.00;99.90;;;;;;5073588;28;20039;-72
2023/01/21 07:05:51;;;;;;;17.50;10.95;;;30.10;99.90;;;;;;5073333;28;20020;-69
2023/01/21 07:08:17;;;;;;;24.42;16.40;;;30.10;99.90;;;;;;5073557;28;20029;-70
2023/01/21 07:10:44;;;;;;;20.25;14.02;;;30.20;99.90;;;;;;5073515;28;20120;-70
2023/01/21 07:13:10;;;;;;;23.08;13.02;;;30.20;99.90;;;;;;5073169;28;20031;-70
2023/01/21 07:15:37;;;;;;;27.77;21.92;;;30.10;99.90;;;;;;5073372;28;20114;-67
2023/01/21 07:18:03;;;;;;;26.30;14.57;;;30.10;99.90;;;;;;5077182;28;20019;-70
2023/01/21 07:20:30;;;;;;;55.65;41.92;;;30.20;99.90;;;;;;5093665;28;20031;-68
2023/01/21 07:22:56;;;;;;;15.77;11.30;;;30.20;99.90;;;;;;5093542;28;20035;-68
2023/01/21 07:25:23;;;;;;;28.58;21.70;;;30.20;99.90;;;;;;5093576;28;20042;-69
2023/01/21 07:27:49;;;;;;;27.00;17.67;;;30.20;99.90;;;;;;5093415;28;20032;-69
2023/01/21 07:30:18;;;;;;;15.50;12.57;;;30.20;99.90;;;;;;5093274;28;20524;-69
2023/01/21 07:32:46;;;;;;;15.00;10.77;;;30.20;99.90;;;;;;5093242;28;20032;-69
2023/01/21 07:35:13;;;;;;;22.50;11.98;;;30.10;99.90;;;;;;5093330;28;20047;-67
2023/01/21 07:37:40;;;;;;;18.52;12.10;;;30.20;99.90;;;;;;5093232;28;20629;-69
2023/01/21 07:40:07;;;;;;;23.27;15.90;;;30.10;99.90;;;;;;5093406;28;20020;-70
2023/01/21 07:42:34;;;;;;;45.15;30.67;;;30.10;99.90;;;;;;5093324;28;20422;-67
2023/01/21 07:45:02;;;;;;;65.35;47.95;;;30.20;99.90;;;;;;5086890;28;20036;-68
2023/01/21 07:47:29;;;;;;;39.58;28.92;;;30.30;99.90;;;;;;5092293;28;20044;-68
2023/01/21 07:49:55;;;;;;;31.55;22.38;;;30.20;99.90;;;;;;5093073;28;20031;-69
2023/01/21 07:52:22;;;;;;;37.42;28.13;;;30.30;99.90;;;;;;5092903;28;20020;-70
2023/01/21 07:54:48;;;;;;;27.00;20.70;;;30.30;99.90;;;;;;5093158;28;20024;-69
2023/01/21 07:57:15;;;;;;;28.15;17.77;;;30.30;99.90;;;;;;5093387;28;20026;-70
2023/01/21 07:59:41;;;;;;;19.42;12.80;;;30.40;99.90;;;;;;5098250;28;20119;-69
2023/01/21 08:02:10;;;;;;;22.73;14.23;;;30.40;99.90;;;;;;5101618;28;20040;-69
2023/01/21 08:04:37;;;;;;;25.13;15.85;;;30.50;99.90;;;;;;5100030;28;20039;-69
2023/01/21 08:07:07;;;;;;;19.08;12.05;;;30.50;99.90;;;;;;5101335;28;20055;-70
2023/01/21 08:09:36;;;;;;;20.33;11.68;;;30.50;99.90;;;;;;5094955;28;20042;-69
2023/01/21 08:12:04;;;;;;;15.30;12.05;;;30.50;99.90;;;;;;5094907;28;20024;-72
2023/01/21 08:14:31;;;;;;;57.95;39.55;;;30.60;99.90;;;;;;5097069;28;20039;-68
2023/01/21 08:16:58;;;;;;;61.40;42.72;;;30.60;99.90;;;;;;5096475;28;20395;-69
2023/01/21 08:19:24;;;;;;;32.63;20.65;;;30.60;99.90;;;;;;5096077;28;20024;-69
2023/01/21 08:21:51;;;;;;;34.47;24.38;;;30.60;99.90;;;;;;5095827;28;20051;-69
2023/01/21 08:24:18;;;;;;;13.88;9.63;;;30.70;99.90;;;;;;5094330;28;20384;-69
2023/01/21 08:26:45;;;;;;;34.00;23.23;;;30.80;99.90;;;;;;5091093;28;20044;-69
2023/01/21 08:29:11;;;;;;;32.15;22.20;;;30.80;99.90;;;;;;5091386;28;20511;-68
2023/01/21 08:31:38;;;;;;;22.65;15.98;;;30.80;99.90;;;;;;5090784;28;20026;-71
2023/01/21 08:34:04;;;;;;;38.53;25.48;;;30.80;99.90;;;;;;5093503;28;20035;-68
2023/01/21 08:36:31;;;;;;;28.98;23.73;;;30.80;99.90;;;;;;5094138;28;20441;-69
2023/01/21 08:39:00;;;;;;;25.02;16.35;;;30.80;99.90;;;;;;5101450;28;20031;-68
2023/01/21 08:41:27;;;;;;;16.20;12.35;;;30.80;99.90;;;;;;5094240;28;20071;-68
2023/01/21 08:43:54;;;;;;;14.35;10.73;;;30.80;99.90;;;;;;5088494;28;20419;-68
2023/01/21 08:46:20;;;;;;;57.97;41.70;;;30.80;99.90;;;;;;5088998;28;20024;-70
2023/01/21 08:48:47;;;;;;;24.70;20.05;;;30.80;99.90;;;;;;5090229;28;20024;-71
2023/01/21 08:51:13;;;;;;;34.55;22.67;;;30.80;99.90;;;;;;5090253;28;20465;-70
2023/01/21 08:53:40;;;;;;;23.90;20.17;;;30.80;99.90;;;;;;5104176;28;20019;-69
2023/01/21 08:56:07;;;;;;;20.65;18.42;;;30.80;99.90;;;;;;5107826;28;20027;-68
2023/01/21 08:58:34;;;;;;;12.60;9.20;;;30.80;99.90;;;;;;5105511;28;20034;-69
2023/01/21 09:01:10;;;;;;;13.30;8.13;;;30.80;99.90;;;;;;5101919;28;20020;-66
2023/01/21 09:03:37;;;;;;;11.02;8.27;;;30.80;99.90;;;;;;5104834;28;20035;-67
2023/01/21 09:06:05;;;;;;;32.15;23.88;;;30.80;99.90;;;;;;5096460;28;20047;-69
2023/01/21 09:08:31;;;;;;;41.00;29.30;;;30.80;99.90;;;;;;5098423;28;20042;-68
2023/01/21 09:10:59;;;;;;;39.35;33.47;;;30.80;99.90;;;;;;5105818;28;20080;-69
2023/01/21 09:13:27;;;;;;;25.27;19.92;;;30.80;99.90;;;;;;5105138;28;20024;-69
2023/01/21 09:15:53;;;;;;;38.20;30.63;;;30.80;99.90;;;;;;5102810;28;20047;-69
2023/01/21 09:18:20;;;;;;;31.00;23.60;;;30.90;99.90;;;;;;5096902;28;20472;-69
2023/01/21 09:20:47;;;;;;;21.50;16.60;;;30.90;99.90;;;;;;5106539;28;20043;-68
2023/01/21 09:25:53;;;;;;;29.98;18.05;;;30.80;99.90;;;;;;5096420;28;20012;-67
2023/01/21 09:28:21;;;;;;;24.13;16.08;;;30.70;99.90;;;;;;5094999;28;20304;-67
2023/01/21 09:30:47;;;;;;;31.38;16.63;;;30.70;99.90;;;;;;5092719;28;20020;-69
2023/01/21 09:33:15;;;;;;;40.58;28.02;;;30.60;99.90;;;;;;5091283;28;20039;-71
2023/01/21 09:35:43;;;;;;;43.08;33.55;;;30.60;99.90;;;;;;5088496;28;20028;-71
2023/01/21 09:38:11;;;;;;;37.45;26.77;;;30.50;99.90;;;;;;5091665;28;20034;-70
2023/01/21 09:40:44;;;;;;;29.98;22.70;;;30.50;99.90;;;;;;5092895;28;20051;-71
2023/01/21 09:43:20;;;;;;;22.13;14.27;;;30.50;99.90;;;;;;5093726;28;20036;-69
2023/01/21 09:45:49;;;;;;;20.38;12.95;;;30.50;99.90;;;;;;5093634;28;20099;-71
2023/01/21 09:48:28;;;;;;;18.60;11.55;;;30.40;99.90;;;;;;5093917;28;20075;-70
2023/01/21 09:50:59;;;;;;;13.98;9.68;;;30.40;99.90;;;;;;5092848;28;20024;-68
2023/01/21 09:53:32;;;;;;;12.18;7.88;;;30.40;99.90;;;;;;5095572;28;20038;-70
2023/01/21 09:56:02;;;;;;;17.20;10.20;;;30.40;99.90;;;;;;5098682;28;20468;-69
2023/01/21 09:58:41;;;;;;;18.58;9.23;;;30.50;99.90;;;;;;5096642;28;20028;-67
2023/01/21 10:01:37;;;;;;;21.67;10.07;;;30.50;99.90;;;;;;5094885;28;20020;-67
2023/01/21 10:04:27;;;;;;;17.02;8.98;;;30.50;99.90;;;;;;5098336;28;20074;-72
2023/01/21 10:07:17;;;;;;;17.33;9.10;;;30.50;99.90;;;;;;5101624;28;20046;-69
2023/01/21 10:10:23;;;;;;;11.23;7.65;;;30.50;99.90;;;;;;5065321;28;20040;-69
2023/01/21 10:12:51;;;;;;;16.33;8.00;;;30.40;99.90;;;;;;5066436;28;20063;-67
2023/01/21 10:15:27;;;;;;;14.10;9.65;;;30.40;99.90;;;;;;5101459;28;20022;-68
2023/01/21 10:17:58;;;;;;;17.08;9.50;;;30.30;99.90;;;;;;5102421;28;20052;-66
2023/01/21 10:20:40;;;;;;;14.90;8.57;;;30.40;99.90;;;;;;5101240;28;20031;-67
2023/01/21 10:23:30;;;;;;;14.32;8.18;;;30.30;99.90;;;;;;5100693;28;20024;-69
2023/01/21 10:26:00;;;;;;;14.95;8.27;;;30.20;99.90;;;;;;5098316;28;20036;-69
2023/01/21 10:28:29;;;;;;;16.38;8.60;;;30.20;99.90;;;;;;5100853;28;20047;-68
2023/01/21 10:31:25;;;;;;;14.48;9.77;;;30.20;99.90;;;;;;5098330;28;20157;-71
2023/01/21 10:33:52;;;;;;;16.95;9.18;;;30.20;99.90;;;;;;5098470;28;20039;-69
2023/01/21 10:36:48;;;;;;;49.55;37.65;;;30.20;99.90;;;;;;5101673;28;20464;-70
2023/01/21 10:39:24;;;;;;;27.10;17.95;;;30.20;99.90;;;;;;5103503;28;20116;-70
2023/01/21 10:41:57;;;;;;;21.70;11.38;;;30.20;99.90;;;;;;5109287;28;20022;-70
2023/01/21 10:44:29;;;;;;;23.23;14.77;;;30.20;99.90;;;;;;5085614;28;20461;-68
2023/01/21 10:47:16;;;;;;;15.48;9.75;;;30.10;99.90;;;;;;5097760;28;20843;-69
2023/01/21 10:50:00;;;;;;;11.48;8.60;;;30.00;99.90;;;;;;5095777;28;20035;-69
2023/01/21 10:52:31;;;;;;;28.80;16.25;;;30.00;99.90;;;;;;5101788;28;20031;-69
2023/01/21 10:55:40;;;;;;;53.65;28.38;;;30.00;99.90;;;;;;5105140;28;20142;-70
2023/01/21 10:58:24;;;;;;;28.58;20.85;;;30.00;99.90;;;;;;5105730;28;20130;-68
2023/01/21 11:00:53;;;;;;;42.92;28.08;;;30.00;99.90;;;;;;5095190;28;20449;-67
2023/01/21 11:03:40;;;;;;;35.10;23.08;;;30.00;99.90;;;;;;5097777;28;20056;-66
2023/01/21 11:06:09;;;;;;;32.28;21.63;;;29.90;99.90;;;;;;5097784;28;20028;-72
2023/01/21 11:08:37;;;;;;;34.97;22.63;;;29.90;99.90;;;;;;5101642;28;20035;-68
2023/01/21 11:11:07;;;;;;;33.40;19.77;;;29.90;99.90;;;;;;5098315;28;20026;-73
2023/01/21 11:13:34;;;;;;;38.80;23.30;;;29.80;99.90;;;;;;5102049;28;20455;-72
2023/01/21 11:16:03;;;;;;;29.98;19.02;;;29.90;99.90;;;;;;5096870;28;20013;-74
2023/01/21 11:18:32;;;;;;;110.18;94.82;;;29.80;99.90;;;;;;5092676;28;20447;-70
2023/01/21 11:21:19;;;;;;;75.45;52.47;;;29.80;99.90;;;;;;5095428;28;20028;-71
2023/01/21 11:23:56;;;;;;;57.25;40.33;;;29.90;99.90;;;;;;5105548;28;20456;-71
2023/01/21 11:26:27;;;;;;;84.75;63.85;;;29.80;99.90;;;;;;5099868;28;20085;-71
2023/01/21 11:29:15;;;;;;;49.45;37.08;;;29.80;99.90;;;;;;5092430;28;20469;-72
2023/01/21 11:31:44;;;;;;;37.47;26.20;;;29.80;99.90;;;;;;5091968;28;20042;-73
2023/01/21 11:34:17;;;;;;;41.50;26.85;;;29.80;99.90;;;;;;5091253;28;20036;-73
2023/01/21 11:37:04;;;;;;;47.17;34.97;;;29.70;99.90;;;;;;5089252;28;20042;-69
2023/01/21 11:39:33;;;;;;;31.33;20.98;;;29.70;99.90;;;;;;5101582;28;20519;-71
2023/01/21 11:42:17;;;;;;;27.33;17.05;;;29.70;99.90;;;;;;5097943;28;20375;-72
2023/01/21 11:44:53;;;;;;;28.15;19.52;;;29.70;99.90;;;;;;5106420;28;20027;-71
2023/01/21 11:47:36;;;;;;;22.52;13.30;;;29.70;99.90;;;;;;5101317;28;20036;-71
2023/01/21 11:50:15;;;;;;;20.45;10.88;;;29.60;99.90;;;;;;5105414;28;20028;-69
2023/01/21 11:52:41;;;;;;;26.08;15.15;;;29.60;99.90;;;;;;5103507;28;20039;-69
2023/01/21 11:55:20;;;;;;;30.95;20.92;;;29.60;99.90;;;;;;5106105;28;20020;-73
2023/01/21 11:57:51;;;;;;;40.13;28.73;;;29.50;99.90;;;;;;5102993;28;20027;-71
2023/01/21 12:00:23;;;;;;;45.73;32.77;;;29.50;99.90;;;;;;5103707;28;20455;-71
2023/01/21 12:02:55;;;;;;;52.10;36.35;;;29.50;99.90;;;;;;5098031;28;20020;-69
2023/01/21 12:05:33;;;;;;;37.55;24.20;;;29.50;99.90;;;;;;5108154;28;20036;-71
2023/01/21 12:08:01;;;;;;;43.00;28.27;;;29.40;99.90;;;;;;5108759;28;20058;-70
2023/01/21 12:10:30;;;;;;;47.25;34.70;;;29.40;99.90;;;;;;5112394;28;20411;-71
2023/01/21 12:13:16;;;;;;;46.45;33.33;;;29.40;99.90;;;;;;5112041;28;20026;-76
2023/01/21 12:15:43;;;;;;;44.85;33.17;;;29.40;99.90;;;;;;5091460;28;20636;-74
2023/01/21 12:18:18;;;;;;;31.08;19.88;;;29.40;99.90;;;;;;5112555;28;20016;-75
2023/01/21 12:21:04;;;;;;;33.20;22.85;;;29.40;99.90;;;;;;5111536;28;20016;-73
2023/01/21 12:23:49;;;;;;;24.85;16.40;;;29.30;99.90;;;;;;5112171;28;20016;-73
2023/01/21 12:26:45;;;;;;;28.88;15.27;;;29.30;99.90;;;;;;5112262;28;20023;-73
2023/01/21 12:29:31;;;;;;;36.50;24.88;;;29.30;99.90;;;;;;5109662;28;20454;-73
2023/01/21 12:32:07;;;;;;;27.90;19.20;;;29.30;99.90;;;;;;5105605;28;20036;-74
2023/01/21 12:35:07;;;;;;;23.77;16.63;;;29.20;99.90;;;;;;5108173;28;20404;-74
2023/01/21 12:37:45;;;;;;;46.90;31.95;;;29.20;99.90;;;;;;5100451;28;20016;-73
2023/01/21 12:40:35;;;;;;;43.08;33.22;;;29.20;99.90;;;;;;5086433;28;20016;-73
2023/01/21 12:43:18;;;;;;;21.48;13.82;;;29.20;99.90;;;;;;5090958;28;20016;-72
2023/01/21 12:45:54;;;;;;;60.72;43.35;;;29.10;99.90;;;;;;5097103;28;20289;-75
2023/01/21 12:48:50;;;;;;;50.80;35.05;;;29.10;99.90;;;;;;5098568;28;20084;-74
2023/01/21 12:51:18;;;;;;;24.83;18.23;;;29.10;99.90;;;;;;5087610;28;20073;-76